KNFL

Fallon NAS (Van Voorhis Field) Airport

Fallon, Nevada, USA
METAR KNFL 201656Z VRB03KT 10SM CLR 13/M03 A3026 RMK AO2 SLP206 T01281028
Observed Flight Rules
Oct-20 @ 16:56 UTC (16 minutes ago) Visual Flight Rules
Wind Visibility Clouds
Variable at 3 knots 10 miles
  • Clear skies
Temperatures Readings
Current 13°C / 55°F
Dewpoint -3°C / 27°F
Humidity 33%
Altimeter 30.26" Hg
Pressure 1020.6 hPa
Elevation 1199
METAR KNFL 201656Z VRB03KT 10SM CLR 13/M03 A3026 RMK AO2 SLP206 T01281028
Observed Flight Rules
Oct-20 @ 16:56 UTC
(16 minutes ago)
VFR
Wind Visibility
Variable at 3 knots 10 miles
Clouds
  • Clear skies
Temperature Dewpoint
13°C / 55°F -3°C / 27°F
Humidity Altimeter Pressure
33% 30.26" Hg 1020.6 hPa